sensor_id;sensor_type;location;lat;lon;timestamp;temperature;humidity
1626;DHT22;806;48.770;9.156;2023-11-19T00:01:02;8.80;99.90
1626;DHT22;806;48.770;9.156;2023-11-19T00:03:32;8.80;99.90
1626;DHT22;806;48.770;9.156;2023-11-19T00:06:01;8.80;99.90
1626;DHT22;806;48.770;9.156;2023-11-19T00:08:28;8.80;99.90
1626;DHT22;806;48.770;9.156;2023-11-19T00:10:55;8.80;99.90
1626;DHT22;806;48.770;9.156;2023-11-19T00:13:22;8.80;99.90
1626;DHT22;806;48.770;9.156;2023-11-19T00:15:51;8.80;99.90
1626;DHT22;806;48.770;9.156;2023-11-19T00:18:18;8.80;99.90
1626;DHT22;806;48.770;9.156;2023-11-19T00:20:47;8.80;99.90
1626;DHT22;806;48.770;9.156;2023-11-19T00:23:14;8.90;99.90
1626;DHT22;806;48.770;9.156;2023-11-19T00:25:41;8.90;99.90
1626;DHT22;806;48.770;9.156;2023-11-19T00:28:08;9.10;99.90
1626;DHT22;806;48.770;9.156;2023-11-19T00:30:35;9.20;99.90
1626;DHT22;806;48.770;9.156;2023-11-19T00:33:02;9.30;99.90
1626;DHT22;806;48.770;9.156;2023-11-19T00:35:29;9.40;99.90
1626;DHT22;806;48.770;9.156;2023-11-19T00:37:58;9.50;99.90
1626;DHT22;806;48.770;9.156;2023-11-19T00:40:26;9.50;99.90
1626;DHT22;806;48.770;9.156;2023-11-19T00:42:53;9.50;99.90
1626;DHT22;806;48.770;9.156;2023-11-19T00:45:20;9.60;99.90
1626;DHT22;806;48.770;9.156;2023-11-19T00:47:47;9.60;99.90
1626;DHT22;806;48.770;9.156;2023-11-19T00:50:14;9.60;99.90
1626;DHT22;806;48.770;9.156;2023-11-19T00:52:41;9.70;99.90
1626;DHT22;806;48.770;9.156;2023-11-19T00:55:09;9.60;99.90
1626;DHT22;806;48.770;9.156;2023-11-19T00:57:37;9.60;99.90
1626;DHT22;806;48.770;9.156;2023-11-19T01:00:04;9.60;99.90
1626;DHT22;806;48.770;9.156;2023-11-19T01:02:36;9.70;99.90
1626;DHT22;806;48.770;9.156;2023-11-19T01:05:04;9.80;99.90
1626;DHT22;806;48.770;9.156;2023-11-19T01:07:31;9.80;99.90
1626;DHT22;806;48.770;9.156;2023-11-19T01:09:59;9.90;99.90
1626;DHT22;806;48.770;9.156;2023-11-19T01:12:27;9.90;99.90
1626;DHT22;806;48.770;9.156;2023-11-19T01:14:54;9.90;99.90
1626;DHT22;806;48.770;9.156;2023-11-19T01:17:22;10.00;99.90
1626;DHT22;806;48.770;9.156;2023-11-19T01:19:49;10.00;99.90
1626;DHT22;806;48.770;9.156;2023-11-19T01:22:16;10.00;99.90
1626;DHT22;806;48.770;9.156;2023-11-19T01:24:44;10.10;99.90
1626;DHT22;806;48.770;9.156;2023-11-19T01:27:11;10.10;99.90
1626;DHT22;806;48.770;9.156;2023-11-19T01:29:40;10.20;99.90
1626;DHT22;806;48.770;9.156;2023-11-19T01:32:08;10.20;99.90
1626;DHT22;806;48.770;9.156;2023-11-19T01:34:35;10.30;99.90
1626;DHT22;806;48.770;9.156;2023-11-19T01:37:03;10.30;99.90
1626;DHT22;806;48.770;9.156;2023-11-19T01:39:30;10.30;99.90
1626;DHT22;806;48.770;9.156;2023-11-19T01:41:57;10.30;99.90
1626;DHT22;806;48.770;9.156;2023-11-19T01:44:24;10.30;99.90
1626;DHT22;806;48.770;9.156;2023-11-19T01:46:53;10.40;99.90
1626;DHT22;806;48.770;9.156;2023-11-19T01:49:20;10.50;99.90
1626;DHT22;806;48.770;9.156;2023-11-19T01:51:48;10.50;99.90
1626;DHT22;806;48.770;9.156;2023-11-19T01:54:15;10.60;99.90
1626;DHT22;806;48.770;9.156;2023-11-19T01:56:42;10.60;99.90
1626;DHT22;806;48.770;9.156;2023-11-19T01:59:11;10.60;99.90
1626;DHT22;806;48.770;9.156;2023-11-19T02:01:40;10.70;99.90
1626;DHT22;806;48.770;9.156;2023-11-19T02:04:09;10.70;99.90
1626;DHT22;806;48.770;9.156;2023-11-19T02:06:39;10.70;99.90
1626;DHT22;806;48.770;9.156;2023-11-19T02:09:07;10.70;99.90
1626;DHT22;806;48.770;9.156;2023-11-19T02:11:35;10.70;99.90
1626;DHT22;806;48.770;9.156;2023-11-19T02:14:02;10.70;99.90
1626;DHT22;806;48.770;9.156;2023-11-19T02:16:30;10.70;99.90
1626;DHT22;806;48.770;9.156;2023-11-19T02:18:57;10.70;99.90
1626;DHT22;806;48.770;9.156;2023-11-19T02:21:25;10.60;99.90
1626;DHT22;806;48.770;9.156;2023-11-19T02:23:52;10.70;99.90
1626;DHT22;806;48.770;9.156;2023-11-19T02:26:28;10.80;99.90
1626;DHT22;806;48.770;9.156;2023-11-19T02:28:58;10.70;99.90
1626;DHT22;806;48.770;9.156;2023-11-19T02:31:25;10.70;99.90
1626;DHT22;806;48.770;9.156;2023-11-19T02:33:53;10.70;99.90
1626;DHT22;806;48.770;9.156;2023-11-19T02:36:20;10.70;99.90
1626;DHT22;806;48.770;9.156;2023-11-19T02:38:48;10.90;99.90
1626;DHT22;806;48.770;9.156;2023-11-19T02:41:15;10.90;99.90
1626;DHT22;806;48.770;9.156;2023-11-19T02:43:42;10.90;99.90
1626;DHT22;806;48.770;9.156;2023-11-19T02:46:11;11.00;99.90
1626;DHT22;806;48.770;9.156;2023-11-19T02:48:38;11.00;99.90
1626;DHT22;806;48.770;9.156;2023-11-19T02:51:05;11.00;99.90
1626;DHT22;806;48.770;9.156;2023-11-19T02:53:35;10.90;99.90
1626;DHT22;806;48.770;9.156;2023-11-19T02:56:03;10.90;99.90
1626;DHT22;806;48.770;9.156;2023-11-19T02:58:42;10.90;99.90
1626;DHT22;806;48.770;9.156;2023-11-19T03:01:11;10.90;99.90
1626;DHT22;806;48.770;9.156;2023-11-19T03:03:48;10.90;99.90
1626;DHT22;806;48.770;9.156;2023-11-19T03:06:20;10.90;99.90
1626;DHT22;806;48.770;9.156;2023-11-19T03:08:47;11.00;99.90
1626;DHT22;806;48.770;9.156;2023-11-19T03:11:14;11.00;99.90
1626;DHT22;806;48.770;9.156;2023-11-19T03:13:41;11.00;99.90
1626;DHT22;806;48.770;9.156;2023-11-19T03:16:08;11.10;99.90
1626;DHT22;806;48.770;9.156;2023-11-19T03:18:38;11.10;99.90
1626;DHT22;806;48.770;9.156;2023-11-19T03:21:06;11.10;99.90
1626;DHT22;806;48.770;9.156;2023-11-19T03:23:33;11.10;99.90
1626;DHT22;806;48.770;9.156;2023-11-19T03:26:01;11.00;99.90
1626;DHT22;806;48.770;9.156;2023-11-19T03:28:31;11.00;99.90
1626;DHT22;806;48.770;9.156;2023-11-19T03:30:58;11.10;99.90
1626;DHT22;806;48.770;9.156;2023-11-19T03:33:25;11.10;99.90
1626;DHT22;806;48.770;9.156;2023-11-19T03:35:54;11.10;99.90
1626;DHT22;806;48.770;9.156;2023-11-19T03:38:23;11.00;99.90
1626;DHT22;806;48.770;9.156;2023-11-19T03:40:50;11.10;99.90
1626;DHT22;806;48.770;9.156;2023-11-19T03:43:17;11.00;99.90
1626;DHT22;806;48.770;9.156;2023-11-19T03:45:45;11.00;99.90
1626;DHT22;806;48.770;9.156;2023-11-19T03:48:13;11.00;99.90
1626;DHT22;806;48.770;9.156;2023-11-19T03:50:42;11.10;99.90
1626;DHT22;806;48.770;9.156;2023-11-19T03:53:12;11.00;99.90
1626;DHT22;806;48.770;9.156;2023-11-19T03:55:39;11.00;99.90
1626;DHT22;806;48.770;9.156;2023-11-19T03:58:06;11.00;99.90
1626;DHT22;806;48.770;9.156;2023-11-19T04:00:33;11.00;99.90
1626;DHT22;806;48.770;9.156;2023-11-19T04:03:00;11.10;99.90
1626;DHT22;806;48.770;9.156;2023-11-19T04:05:27;11.00;99.90
1626;DHT22;806;48.770;9.156;2023-11-19T04:07:54;11.10;99.90
1626;DHT22;806;48.770;9.156;2023-11-19T04:10:22;11.10;99.90
1626;DHT22;806;48.770;9.156;2023-11-19T04:12:50;11.10;99.90
1626;DHT22;806;48.770;9.156;2023-11-19T04:15:17;11.10;99.90
1626;DHT22;806;48.770;9.156;2023-11-19T04:17:44;11.00;99.90
1626;DHT22;806;48.770;9.156;2023-11-19T04:20:11;11.00;99.90
1626;DHT22;806;48.770;9.156;2023-11-19T04:22:39;11.00;99.90
1626;DHT22;806;48.770;9.156;2023-11-19T04:25:07;11.00;99.90
1626;DHT22;806;48.770;9.156;2023-11-19T04:27:35;11.00;99.90
1626;DHT22;806;48.770;9.156;2023-11-19T04:30:03;11.10;99.90
1626;DHT22;806;48.770;9.156;2023-11-19T04:32:31;11.10;99.90
1626;DHT22;806;48.770;9.156;2023-11-19T04:34:58;11.20;99.90
1626;DHT22;806;48.770;9.156;2023-11-19T04:37:25;11.20;99.90
1626;DHT22;806;48.770;9.156;2023-11-19T04:39:52;11.20;99.90
1626;DHT22;806;48.770;9.156;2023-11-19T04:42:19;11.20;99.90
1626;DHT22;806;48.770;9.156;2023-11-19T04:44:51;11.20;99.90
1626;DHT22;806;48.770;9.156;2023-11-19T04:47:18;11.30;99.90
1626;DHT22;806;48.770;9.156;2023-11-19T04:49:45;11.30;99.90
1626;DHT22;806;48.770;9.156;2023-11-19T04:52:12;11.30;99.90
1626;DHT22;806;48.770;9.156;2023-11-19T04:54:41;11.40;99.90
1626;DHT22;806;48.770;9.156;2023-11-19T04:57:09;11.30;99.90
1626;DHT22;806;48.770;9.156;2023-11-19T04:59:37;11.40;99.90
1626;DHT22;806;48.770;9.156;2023-11-19T05:02:05;11.40;99.90
1626;DHT22;806;48.770;9.156;2023-11-19T05:04:32;11.50;99.90
1626;DHT22;806;48.770;9.156;2023-11-19T05:06:59;11.40;99.90
1626;DHT22;806;48.770;9.156;2023-11-19T05:09:27;11.50;99.90
1626;DHT22;806;48.770;9.156;2023-11-19T05:11:54;11.50;99.90
1626;DHT22;806;48.770;9.156;2023-11-19T05:14:21;11.50;99.90
1626;DHT22;806;48.770;9.156;2023-11-19T05:16:50;11.50;99.90
1626;DHT22;806;48.770;9.156;2023-11-19T05:19:18;11.60;99.90
1626;DHT22;806;48.770;9.156;2023-11-19T05:21:45;11.60;99.90
1626;DHT22;806;48.770;9.156;2023-11-19T05:24:12;11.60;99.90
1626;DHT22;806;48.770;9.156;2023-11-19T05:26:39;11.60;99.90
1626;DHT22;806;48.770;9.156;2023-11-19T05:29:07;11.60;99.90
1626;DHT22;806;48.770;9.156;2023-11-19T05:31:34;11.60;99.90
1626;DHT22;806;48.770;9.156;2023-11-19T05:34:01;11.60;99.90
1626;DHT22;806;48.770;9.156;2023-11-19T05:36:29;11.60;99.90
1626;DHT22;806;48.770;9.156;2023-11-19T05:38:56;11.60;99.90
1626;DHT22;806;48.770;9.156;2023-11-19T05:41:23;11.80;99.90
1626;DHT22;806;48.770;9.156;2023-11-19T05:43:51;11.80;99.90
1626;DHT22;806;48.770;9.156;2023-11-19T05:46:18;11.70;99.90
1626;DHT22;806;48.770;9.156;2023-11-19T05:48:45;11.70;99.90
1626;DHT22;806;48.770;9.156;2023-11-19T05:51:12;11.80;99.90
1626;DHT22;806;48.770;9.156;2023-11-19T05:53:42;11.70;99.90
1626;DHT22;806;48.770;9.156;2023-11-19T05:56:09;11.70;99.90
1626;DHT22;806;48.770;9.156;2023-11-19T05:58:36;11.80;99.90
1626;DHT22;806;48.770;9.156;2023-11-19T06:01:05;11.70;99.90
1626;DHT22;806;48.770;9.156;2023-11-19T06:03:33;11.70;99.90
1626;DHT22;806;48.770;9.156;2023-11-19T06:06:00;11.70;99.90
1626;DHT22;806;48.770;9.156;2023-11-19T06:08:27;11.70;99.90
1626;DHT22;806;48.770;9.156;2023-11-19T06:10:57;11.70;99.90
1626;DHT22;806;48.770;9.156;2023-11-19T06:13:26;11.70;99.90
1626;DHT22;806;48.770;9.156;2023-11-19T06:15:53;11.70;99.90
1626;DHT22;806;48.770;9.156;2023-11-19T06:18:20;11.60;99.90
1626;DHT22;806;48.770;9.156;2023-11-19T06:20:49;11.60;99.90
1626;DHT22;806;48.770;9.156;2023-11-19T06:23:16;11.60;99.90
1626;DHT22;806;48.770;9.156;2023-11-19T06:25:43;11.60;99.90
1626;DHT22;806;48.770;9.156;2023-11-19T06:28:11;11.60;99.90
1626;DHT22;806;48.770;9.156;2023-11-19T06:30:38;11.60;99.90
1626;DHT22;806;48.770;9.156;2023-11-19T06:33:07;11.70;99.90
1626;DHT22;806;48.770;9.156;2023-11-19T06:35:34;11.60;99.90
1626;DHT22;806;48.770;9.156;2023-11-19T06:38:02;11.70;99.90
1626;DHT22;806;48.770;9.156;2023-11-19T06:40:30;11.70;99.90
1626;DHT22;806;48.770;9.156;2023-11-19T06:42:57;11.70;99.90
1626;DHT22;806;48.770;9.156;2023-11-19T06:45:25;11.70;99.90
1626;DHT22;806;48.770;9.156;2023-11-19T06:47:52;11.70;99.90
1626;DHT22;806;48.770;9.156;2023-11-19T06:50:19;11.70;99.90
1626;DHT22;806;48.770;9.156;2023-11-19T06:52:47;11.70;99.90
1626;DHT22;806;48.770;9.156;2023-11-19T06:55:14;11.70;99.90
1626;DHT22;806;48.770;9.156;2023-11-19T06:57:41;11.70;99.90
1626;DHT22;806;48.770;9.156;2023-11-19T07:00:09;11.70;99.90
1626;DHT22;806;48.770;9.156;2023-11-19T07:02:38;11.70;99.90
1626;DHT22;806;48.770;9.156;2023-11-19T07:05:06;11.70;99.90
1626;DHT22;806;48.770;9.156;2023-11-19T07:07:34;11.70;99.90
1626;DHT22;806;48.770;9.156;2023-11-19T07:10:01;11.70;99.90
1626;DHT22;806;48.770;9.156;2023-11-19T07:12:30;11.70;99.90
1626;DHT22;806;48.770;9.156;2023-11-19T07:14:57;11.60;99.90
1626;DHT22;806;48.770;9.156;2023-11-19T07:17:24;11.60;99.90
1626;DHT22;806;48.770;9.156;2023-11-19T07:19:52;11.60;99.90
1626;DHT22;806;48.770;9.156;2023-11-19T07:22:20;11.60;99.90
1626;DHT22;806;48.770;9.156;2023-11-19T07:24:47;11.70;99.90
1626;DHT22;806;48.770;9.156;2023-11-19T07:27:14;11.70;99.90
1626;DHT22;806;48.770;9.156;2023-11-19T07:29:43;11.70;99.90
1626;DHT22;806;48.770;9.156;2023-11-19T07:32:10;11.80;99.90
1626;DHT22;806;48.770;9.156;2023-11-19T07:34:39;11.70;99.90
1626;DHT22;806;48.770;9.156;2023-11-19T07:37:08;11.80;99.90
1626;DHT22;806;48.770;9.156;2023-11-19T07:39:35;11.80;99.90
1626;DHT22;806;48.770;9.156;2023-11-19T07:42:03;11.80;99.90
1626;DHT22;806;48.770;9.156;2023-11-19T07:44:31;11.80;99.90
1626;DHT22;806;48.770;9.156;2023-11-19T07:46:58;11.80;99.90
1626;DHT22;806;48.770;9.156;2023-11-19T07:49:25;11.90;99.90
1626;DHT22;806;48.770;9.156;2023-11-19T07:51:52;11.90;99.90
1626;DHT22;806;48.770;9.156;2023-11-19T07:54:20;11.90;99.90
1626;DHT22;806;48.770;9.156;2023-11-19T07:56:48;11.90;99.90
1626;DHT22;806;48.770;9.156;2023-11-19T07:59:16;12.00;99.90
1626;DHT22;806;48.770;9.156;2023-11-19T08:01:43;12.00;99.90
1626;DHT22;806;48.770;9.156;2023-11-19T08:04:10;12.00;99.90
1626;DHT22;806;48.770;9.156;2023-11-19T08:06:37;12.00;99.90
1626;DHT22;806;48.770;9.156;2023-11-19T08:09:04;12.00;99.90
1626;DHT22;806;48.770;9.156;2023-11-19T08:11:33;12.10;99.90
1626;DHT22;806;48.770;9.156;2023-11-19T08:14:00;12.20;99.90
1626;DHT22;806;48.770;9.156;2023-11-19T08:16:28;12.20;99.90
1626;DHT22;806;48.770;9.156;2023-11-19T08:18:55;12.20;99.90
1626;DHT22;806;48.770;9.156;2023-11-19T08:21:24;12.20;99.90
1626;DHT22;806;48.770;9.156;2023-11-19T08:23:52;12.30;99.90
1626;DHT22;806;48.770;9.156;2023-11-19T08:26:19;12.30;99.90
1626;DHT22;806;48.770;9.156;2023-11-19T08:28:48;12.30;99.90
1626;DHT22;806;48.770;9.156;2023-11-19T08:31:15;12.40;99.90
1626;DHT22;806;48.770;9.156;2023-11-19T08:33:42;12.50;99.90
1626;DHT22;806;48.770;9.156;2023-11-19T08:36:15;12.60;99.90
1626;DHT22;806;48.770;9.156;2023-11-19T08:38:43;12.70;99.90
1626;DHT22;806;48.770;9.156;2023-11-19T08:41:10;12.80;99.90
1626;DHT22;806;48.770;9.156;2023-11-19T08:43:37;12.90;99.90
1626;DHT22;806;48.770;9.156;2023-11-19T08:46:09;13.00;99.90
1626;DHT22;806;48.770;9.156;2023-11-19T08:48:36;13.10;99.90
1626;DHT22;806;48.770;9.156;2023-11-19T08:51:04;13.10;99.90
1626;DHT22;806;48.770;9.156;2023-11-19T08:53:31;13.00;99.90
1626;DHT22;806;48.770;9.156;2023-11-19T08:55:58;13.00;99.90
1626;DHT22;806;48.770;9.156;2023-11-19T08:58:26;13.00;99.90
1626;DHT22;806;48.770;9.156;2023-11-19T09:00:53;13.00;99.90
1626;DHT22;806;48.770;9.156;2023-11-19T09:03:21;13.00;99.90
1626;DHT22;806;48.770;9.156;2023-11-19T09:05:49;13.00;99.90
1626;DHT22;806;48.770;9.156;2023-11-19T09:08:16;13.10;99.90
1626;DHT22;806;48.770;9.156;2023-11-19T09:10:43;13.20;99.90
1626;DHT22;806;48.770;9.156;2023-11-19T09:13:10;13.40;99.90
1626;DHT22;806;48.770;9.156;2023-11-19T09:15:38;13.40;99.90
1626;DHT22;806;48.770;9.156;2023-11-19T09:18:05;13.50;99.90
1626;DHT22;806;48.770;9.156;2023-11-19T09:20:33;13.60;99.90
1626;DHT22;806;48.770;9.156;2023-11-19T09:23:04;13.60;99.90
1626;DHT22;806;48.770;9.156;2023-11-19T09:25:31;13.60;99.90
1626;DHT22;806;48.770;9.156;2023-11-19T09:27:58;13.50;99.90
1626;DHT22;806;48.770;9.156;2023-11-19T09:30:25;13.50;99.90
1626;DHT22;806;48.770;9.156;2023-11-19T09:32:52;13.50;99.90
1626;DHT22;806;48.770;9.156;2023-11-19T09:35:19;13.60;99.90
1626;DHT22;806;48.770;9.156;2023-11-19T09:37:48;13.80;99.90
1626;DHT22;806;48.770;9.156;2023-11-19T09:40:15;13.90;99.90
1626;DHT22;806;48.770;9.156;2023-11-19T09:42:44;14.00;99.90
1626;DHT22;806;48.770;9.156;2023-11-19T09:45:14;14.00;99.90
1626;DHT22;806;48.770;9.156;2023-11-19T09:47:43;14.00;99.90
1626;DHT22;806;48.770;9.156;2023-11-19T09:50:16;14.00;99.90
1626;DHT22;806;48.770;9.156;2023-11-19T09:52:43;14.00;99.90
1626;DHT22;806;48.770;9.156;2023-11-19T09:55:12;14.00;99.90
1626;DHT22;806;48.770;9.156;2023-11-19T09:57:40;13.90;99.90
1626;DHT22;806;48.770;9.156;2023-11-19T10:00:10;14.00;99.90
1626;DHT22;806;48.770;9.156;2023-11-19T10:02:39;14.10;99.90
1626;DHT22;806;48.770;9.156;2023-11-19T10:05:07;14.20;99.90
1626;DHT22;806;48.770;9.156;2023-11-19T10:07:35;14.40;99.90
1626;DHT22;806;48.770;9.156;2023-11-19T10:10:04;14.60;99.90
1626;DHT22;806;48.770;9.156;2023-11-19T10:12:32;14.70;99.90
1626;DHT22;806;48.770;9.156;2023-11-19T10:14:59;14.70;99.90
1626;DHT22;806;48.770;9.156;2023-11-19T10:17:33;14.60;99.90
1626;DHT22;806;48.770;9.156;2023-11-19T10:20:00;14.60;99.90
1626;DHT22;806;48.770;9.156;2023-11-19T10:22:28;14.60;99.90
1626;DHT22;806;48.770;9.156;2023-11-19T10:24:55;14.60;99.90
1626;DHT22;806;48.770;9.156;2023-11-19T10:27:24;14.70;99.90
1626;DHT22;806;48.770;9.156;2023-11-19T10:29:52;14.80;99.90
1626;DHT22;806;48.770;9.156;2023-11-19T10:32:20;14.90;99.90
1626;DHT22;806;48.770;9.156;2023-11-19T10:34:47;14.90;99.90
1626;DHT22;806;48.770;9.156;2023-11-19T10:37:27;15.00;99.90
1626;DHT22;806;48.770;9.156;2023-11-19T10:39:57;15.00;99.90
1626;DHT22;806;48.770;9.156;2023-11-19T10:42:24;15.10;99.90
1626;DHT22;806;48.770;9.156;2023-11-19T10:44:53;15.20;99.90
1626;DHT22;806;48.770;9.156;2023-11-19T10:47:20;15.30;99.90
1626;DHT22;806;48.770;9.156;2023-11-19T10:49:49;15.40;99.90
1626;DHT22;806;48.770;9.156;2023-11-19T10:52:18;15.50;99.90
1626;DHT22;806;48.770;9.156;2023-11-19T10:54:50;15.60;99.90
1626;DHT22;806;48.770;9.156;2023-11-19T10:57:20;15.60;99.90
1626;DHT22;806;48.770;9.156;2023-11-19T10:59:49;15.70;99.90
1626;DHT22;806;48.770;9.156;2023-11-19T11:02:22;15.70;99.90
1626;DHT22;806;48.770;9.156;2023-11-19T11:04:51;15.80;99.90
1626;DHT22;806;48.770;9.156;2023-11-19T11:07:21;15.80;99.90
1626;DHT22;806;48.770;9.156;2023-11-19T11:09:51;15.90;99.90
1626;DHT22;806;48.770;9.156;2023-11-19T11:12:21;15.90;99.90
1626;DHT22;806;48.770;9.156;2023-11-19T11:14:49;15.80;99.90
1626;DHT22;806;48.770;9.156;2023-11-19T11:17:17;15.80;99.90
1626;DHT22;806;48.770;9.156;2023-11-19T11:19:46;15.80;99.90
1626;DHT22;806;48.770;9.156;2023-11-19T11:22:14;15.80;99.90
1626;DHT22;806;48.770;9.156;2023-11-19T11:25:01;15.70;99.90
1626;DHT22;806;48.770;9.156;2023-11-19T11:27:51;15.60;99.90
1626;DHT22;806;48.770;9.156;2023-11-19T11:30:29;15.60;99.90
1626;DHT22;806;48.770;9.156;2023-11-19T11:33:07;15.70;99.90
1626;DHT22;806;48.770;9.156;2023-11-19T11:35:49;15.60;99.90
1626;DHT22;806;48.770;9.156;2023-11-19T11:38:22;15.60;99.90
1626;DHT22;806;48.770;9.156;2023-11-19T11:41:17;15.50;99.90
1626;DHT22;806;48.770;9.156;2023-11-19T11:43:46;15.50;99.90
1626;DHT22;806;48.770;9.156;2023-11-19T11:49:25;15.40;99.90
1626;DHT22;806;48.770;9.156;2023-11-19T11:52:01;15.40;99.90
1626;DHT22;806;48.770;9.156;2023-11-19T11:54:29;15.50;99.90
1626;DHT22;806;48.770;9.156;2023-11-19T11:57:17;15.60;99.90
1626;DHT22;806;48.770;9.156;2023-11-19T11:59:48;15.90;99.90
1626;DHT22;806;48.770;9.156;2023-11-19T12:02:15;16.10;1.00
1626;DHT22;806;48.770;9.156;2023-11-19T12:04:46;16.10;1.00
1626;DHT22;806;48.770;9.156;2023-11-19T12:07:16;16.00;1.00
1626;DHT22;806;48.770;9.156;2023-11-19T12:09:50;16.00;1.00
1626;DHT22;806;48.770;9.156;2023-11-19T12:12:20;15.90;1.00
1626;DHT22;806;48.770;9.156;2023-11-19T12:15:08;16.00;1.00
1626;DHT22;806;48.770;9.156;2023-11-19T12:17:41;16.10;1.00
1626;DHT22;806;48.770;9.156;2023-11-19T12:20:10;16.30;1.00
1626;DHT22;806;48.770;9.156;2023-11-19T12:22:40;16.20;1.00
1626;DHT22;806;48.770;9.156;2023-11-19T12:25:08;16.20;1.00
1626;DHT22;806;48.770;9.156;2023-11-19T12:27:36;16.20;1.00
1626;DHT22;806;48.770;9.156;2023-11-19T12:30:04;16.20;1.00
1626;DHT22;806;48.770;9.156;2023-11-19T12:32:41;16.20;1.00
1626;DHT22;806;48.770;9.156;2023-11-19T12:35:09;16.20;1.00
1626;DHT22;806;48.770;9.156;2023-11-19T12:37:47;16.20;1.00
1626;DHT22;806;48.770;9.156;2023-11-19T12:40:14;16.20;1.00
1626;DHT22;806;48.770;9.156;2023-11-19T12:42:43;16.10;99.90
1626;DHT22;806;48.770;9.156;2023-11-19T12:45:10;16.00;38.80
1626;DHT22;806;48.770;9.156;2023-11-19T12:47:38;15.90;99.90
1626;DHT22;806;48.770;9.156;2023-11-19T12:50:09;15.90;1.00
1626;DHT22;806;48.770;9.156;2023-11-19T12:52:36;15.80;1.00
1626;DHT22;806;48.770;9.156;2023-11-19T12:57:50;15.80;1.00
1626;DHT22;806;48.770;9.156;2023-11-19T13:00:22;15.90;99.90
1626;DHT22;806;48.770;9.156;2023-11-19T13:02:50;16.00;99.90
1626;DHT22;806;48.770;9.156;2023-11-19T13:05:23;16.00;16.50
1626;DHT22;806;48.770;9.156;2023-11-19T13:07:50;16.10;99.90
1626;DHT22;806;48.770;9.156;2023-11-19T13:10:18;16.10;1.00
1626;DHT22;806;48.770;9.156;2023-11-19T13:13:00;16.00;1.00
1626;DHT22;806;48.770;9.156;2023-11-19T13:15:27;16.10;1.00
1626;DHT22;806;48.770;9.156;2023-11-19T13:17:54;16.00;99.90
1626;DHT22;806;48.770;9.156;2023-11-19T13:20:22;16.00;99.90
1626;DHT22;806;48.770;9.156;2023-11-19T13:22:59;15.90;1.00
1626;DHT22;806;48.770;9.156;2023-11-19T13:25:28;15.90;99.90
1626;DHT22;806;48.770;9.156;2023-11-19T13:27:56;15.90;99.90
1626;DHT22;806;48.770;9.156;2023-11-19T13:30:24;15.90;99.90
1626;DHT22;806;48.770;9.156;2023-11-19T13:32:51;15.90;1.00
1626;DHT22;806;48.770;9.156;2023-11-19T13:35:21;15.80;99.90
1626;DHT22;806;48.770;9.156;2023-11-19T13:37:48;15.80;1.00
1626;DHT22;806;48.770;9.156;2023-11-19T13:40:15;15.80;99.90
1626;DHT22;806;48.770;9.156;2023-11-19T13:42:44;15.70;1.00
1626;DHT22;806;48.770;9.156;2023-11-19T13:45:12;15.70;1.00
1626;DHT22;806;48.770;9.156;2023-11-19T13:47:40;15.60;1.00
1626;DHT22;806;48.770;9.156;2023-11-19T13:50:10;15.60;1.00
1626;DHT22;806;48.770;9.156;2023-11-19T13:52:37;15.50;1.00
1626;DHT22;806;48.770;9.156;2023-11-19T13:55:06;15.40;99.90
1626;DHT22;806;48.770;9.156;2023-11-19T13:57:34;15.30;1.00
1626;DHT22;806;48.770;9.156;2023-11-19T14:00:03;15.30;1.00
1626;DHT22;806;48.770;9.156;2023-11-19T14:02:32;15.20;1.00
1626;DHT22;806;48.770;9.156;2023-11-19T14:04:58;15.20;1.00
1626;DHT22;806;48.770;9.156;2023-11-19T14:07:25;15.20;1.00
1626;DHT22;806;48.770;9.156;2023-11-19T14:09:52;15.20;1.00
1626;DHT22;806;48.770;9.156;2023-11-19T14:12:20;15.10;99.90
1626;DHT22;806;48.770;9.156;2023-11-19T14:14:47;15.10;8.00
1626;DHT22;806;48.770;9.156;2023-11-19T14:17:15;15.00;1.00
1626;DHT22;806;48.770;9.156;2023-11-19T14:19:42;15.00;1.00
1626;DHT22;806;48.770;9.156;2023-11-19T14:22:09;14.90;99.90
1626;DHT22;806;48.770;9.156;2023-11-19T14:24:37;14.80;1.00
1626;DHT22;806;48.770;9.156;2023-11-19T14:27:06;14.80;99.90
1626;DHT22;806;48.770;9.156;2023-11-19T14:29:33;14.80;99.90
1626;DHT22;806;48.770;9.156;2023-11-19T14:32:01;14.80;1.00
1626;DHT22;806;48.770;9.156;2023-11-19T14:34:30;14.70;99.90
1626;DHT22;806;48.770;9.156;2023-11-19T14:36:58;14.70;1.00
1626;DHT22;806;48.770;9.156;2023-11-19T14:39:26;14.60;1.00
1626;DHT22;806;48.770;9.156;2023-11-19T14:41:53;14.50;1.00
1626;DHT22;806;48.770;9.156;2023-11-19T14:44:23;14.50;1.00
1626;DHT22;806;48.770;9.156;2023-11-19T14:46:50;14.60;1.00
1626;DHT22;806;48.770;9.156;2023-11-19T14:49:17;14.60;15.10
1626;DHT22;806;48.770;9.156;2023-11-19T14:51:46;14.50;99.90
1626;DHT22;806;48.770;9.156;2023-11-19T14:54:13;14.40;99.90
1626;DHT22;806;48.770;9.156;2023-11-19T14:56:41;14.40;99.90
1626;DHT22;806;48.770;9.156;2023-11-19T14:59:09;14.40;1.00
1626;DHT22;806;48.770;9.156;2023-11-19T15:01:36;14.40;99.90
1626;DHT22;806;48.770;9.156;2023-11-19T15:04:03;14.40;1.00
1626;DHT22;806;48.770;9.156;2023-11-19T15:06:30;14.30;99.90
1626;DHT22;806;48.770;9.156;2023-11-19T15:09:00;14.30;99.90
1626;DHT22;806;48.770;9.156;2023-11-19T15:11:27;14.20;1.00
1626;DHT22;806;48.770;9.156;2023-11-19T15:13:54;14.20;99.90
1626;DHT22;806;48.770;9.156;2023-11-19T15:16:21;14.20;99.90
1626;DHT22;806;48.770;9.156;2023-11-19T15:18:56;14.20;1.00
1626;DHT22;806;48.770;9.156;2023-11-19T15:21:25;14.20;41.80
1626;DHT22;806;48.770;9.156;2023-11-19T15:23:52;14.20;1.00
1626;DHT22;806;48.770;9.156;2023-11-19T15:26:21;14.20;1.00
1626;DHT22;806;48.770;9.156;2023-11-19T15:28:48;14.20;99.90
1626;DHT22;806;48.770;9.156;2023-11-19T15:31:15;14.20;1.00
1626;DHT22;806;48.770;9.156;2023-11-19T15:33:42;14.10;99.90
1626;DHT22;806;48.770;9.156;2023-11-19T15:36:10;14.10;99.90
1626;DHT22;806;48.770;9.156;2023-11-19T15:38:40;14.00;99.90
1626;DHT22;806;48.770;9.156;2023-11-19T15:41:07;13.90;95.60
1626;DHT22;806;48.770;9.156;2023-11-19T15:43:36;13.90;99.90
1626;DHT22;806;48.770;9.156;2023-11-19T15:46:06;13.90;99.90
1626;DHT22;806;48.770;9.156;2023-11-19T15:48:33;13.90;99.90
1626;DHT22;806;48.770;9.156;2023-11-19T15:51:00;13.90;99.90
1626;DHT22;806;48.770;9.156;2023-11-19T15:53:28;13.90;99.90
1626;DHT22;806;48.770;9.156;2023-11-19T15:55:56;13.90;99.90
1626;DHT22;806;48.770;9.156;2023-11-19T15:58:23;13.80;1.00
1626;DHT22;806;48.770;9.156;2023-11-19T16:00:51;13.80;1.00
1626;DHT22;806;48.770;9.156;2023-11-19T16:03:18;13.70;99.90
1626;DHT22;806;48.770;9.156;2023-11-19T16:05:46;13.70;1.00
1626;DHT22;806;48.770;9.156;2023-11-19T16:08:14;13.70;1.00
1626;DHT22;806;48.770;9.156;2023-11-19T16:10:41;13.70;99.90
1626;DHT22;806;48.770;9.156;2023-11-19T16:13:09;13.80;99.90
1626;DHT22;806;48.770;9.156;2023-11-19T16:15:37;13.80;1.00
1626;DHT22;806;48.770;9.156;2023-11-19T16:18:05;13.70;1.00
1626;DHT22;806;48.770;9.156;2023-11-19T16:20:35;13.70;1.00
1626;DHT22;806;48.770;9.156;2023-11-19T16:23:02;13.70;1.00
1626;DHT22;806;48.770;9.156;2023-11-19T16:25:30;13.60;1.00
1626;DHT22;806;48.770;9.156;2023-11-19T16:27:57;13.50;1.00
1626;DHT22;806;48.770;9.156;2023-11-19T16:30:25;13.40;1.00
1626;DHT22;806;48.770;9.156;2023-11-19T16:32:53;13.30;1.00
1626;DHT22;806;48.770;9.156;2023-11-19T16:35:22;13.30;1.00